Time;durP1;ratioP1;P1;durP2;ratioP2;P2;SDS_P1;SDS_P2;PMS_P1;PMS_P2;Temp;Humidity;BMP_temperature;BMP_pressure;BME280_temperature;BME280_humidity;BME280_pressure;Samples;Min_cycle;Max_cycle;Signal;HPM_P1;HPM_P2
2023/10/24 05:10:12;;;;;;;1999.90;999.90;;;;;;;;;;5058514;23;20054;-72
2023/10/24 05:12:39;;;;;;;1999.90;999.90;;;;;;;;;;5013257;28;20146;-72
2023/10/24 05:15:05;;;;;;;1999.90;999.90;;;;;;;;;;5013118;28;20061;-71
2023/10/24 05:17:31;;;;;;;1999.90;999.90;;;;;;;;;;5013236;28;20072;-70
2023/10/24 05:20:03;;;;;;;1999.90;999.90;;;;;;;;;;5023550;28;20029;-73
2023/10/24 05:22:29;;;;;;;1999.90;999.90;;;;;;;;;;5033034;28;20108;-73
2023/10/24 05:24:55;;;;;;;1999.90;999.90;;;;;;;;;;5032929;28;20057;-64
2023/10/24 05:27:21;;;;;;;1999.90;999.90;;;;;;;;;;5033050;28;20025;-72
2023/10/24 05:29:47;;;;;;;1999.90;999.90;;;;;;;;;;5032948;28;20037;-72
2023/10/24 05:32:14;;;;;;;1999.90;999.90;;;;;;;;;;5033064;28;20134;-71
2023/10/24 05:34:40;;;;;;;1999.90;999.90;;;;;;;;;;5032787;28;20029;-64
2023/10/24 05:37:06;;;;;;;1999.90;999.90;;;;;;;;;;5029515;28;20432;-70
2023/10/24 05:39:32;;;;;;;1999.90;999.90;;;;;;;;;;5020995;28;20068;-71
2023/10/24 05:41:58;;;;;;;1999.90;999.90;;;;;;;;;;5005231;28;20021;-71
2023/10/24 05:44:24;;;;;;;1999.90;999.90;;;;;;;;;;5004394;28;20033;-70
2023/10/24 05:46:50;;;;;;;1999.90;999.90;;;;;;;;;;5020890;28;20448;-71
2023/10/24 05:49:17;;;;;;;1999.90;999.90;;;;;;;;;;5012127;28;20044;-65
2023/10/24 05:51:44;;;;;;;1999.90;999.90;;;;;;;;;;5032626;28;20376;-71
2023/10/24 05:54:10;;;;;;;1999.90;999.90;;;;;;;;;;5015005;28;20025;-70
2023/10/24 05:56:36;;;;;;;1999.90;999.90;;;;;;;;;;5023647;28;20025;-70
2023/10/24 05:59:02;;;;;;;1999.90;999.90;;;;;;;;;;5021546;28;20021;-71
2023/10/24 06:01:28;;;;;;;1999.90;999.90;;;;;;;;;;5022697;28;20021;-75
2023/10/24 06:03:54;;;;;;;1999.90;999.90;;;;;;;;;;5015220;28;20076;-64
2023/10/24 06:06:20;;;;;;;1999.90;999.90;;;;;;;;;;5014420;28;20037;-75
2023/10/24 06:08:46;;;;;;;1999.90;999.90;;;;;;;;;;4996739;28;20046;-73
2023/10/24 06:11:15;;;;;;;1999.90;999.90;;;;;;;;;;5003299;28;20030;-73
2023/10/24 06:13:41;;;;;;;1999.90;999.90;;;;;;;;;;5002101;28;20382;-64
2023/10/24 06:16:11;;;;;;;1999.90;999.90;;;;;;;;;;5001133;28;20030;-74
2023/10/24 06:18:37;;;;;;;1999.90;999.90;;;;;;;;;;4981540;28;20030;-67
2023/10/24 06:21:04;;;;;;;1999.90;999.90;;;;;;;;;;5002149;28;20069;-69
2023/10/24 06:23:31;;;;;;;1999.90;999.90;;;;;;;;;;5000116;28;20034;-70
2023/10/24 06:25:57;;;;;;;1999.90;999.90;;;;;;;;;;5000532;28;20030;-74
2023/10/24 06:28:23;;;;;;;1999.90;999.90;;;;;;;;;;5001562;28;20499;-66
2023/10/24 06:30:58;;;;;;;1999.90;999.90;;;;;;;;;;5001823;28;20026;-68
2023/10/24 06:33:25;;;;;;;1999.90;999.90;;;;;;;;;;5002984;28;20022;-66
2023/10/24 06:35:51;;;;;;;1999.90;999.90;;;;;;;;;;5002040;28;20018;-72
2023/10/24 06:38:17;;;;;;;1999.90;999.90;;;;;;;;;;5001959;28;20089;-63
2023/10/24 06:40:46;;;;;;;1999.90;999.90;;;;;;;;;;5000283;28;20435;-73
2023/10/24 06:43:13;;;;;;;1999.90;999.90;;;;;;;;;;4983630;28;20033;-63
2023/10/24 06:45:39;;;;;;;1999.90;999.90;;;;;;;;;;4996012;28;20022;-63
2023/10/24 06:48:06;;;;;;;1999.90;999.90;;;;;;;;;;4991048;28;20038;-69
2023/10/24 06:50:32;;;;;;;1999.90;999.90;;;;;;;;;;4992064;28;20048;-74
2023/10/24 06:52:58;;;;;;;1999.90;999.90;;;;;;;;;;4999758;28;20026;-68
2023/10/24 06:55:25;;;;;;;1999.90;999.90;;;;;;;;;;5007941;28;20503;-75
2023/10/24 06:57:51;;;;;;;1999.90;999.90;;;;;;;;;;5011762;28;20072;-71
2023/10/24 07:00:18;;;;;;;1999.90;999.90;;;;;;;;;;5011654;28;20083;-74
2023/10/24 07:02:44;;;;;;;1999.90;999.90;;;;;;;;;;4993214;28;20041;-67
2023/10/24 07:05:10;;;;;;;1999.90;999.90;;;;;;;;;;5010634;28;20025;-66
2023/10/24 07:07:38;;;;;;;1999.90;999.90;;;;;;;;;;5011284;28;20120;-75
2023/10/24 07:10:04;;;;;;;1999.90;999.90;;;;;;;;;;5011002;28;20045;-72
2023/10/24 07:12:30;;;;;;;1999.90;999.90;;;;;;;;;;4993249;28;20092;-74
2023/10/24 07:14:58;;;;;;;1999.90;999.90;;;;;;;;;;5010476;28;20037;-73
2023/10/24 07:17:24;;;;;;;1999.90;999.90;;;;;;;;;;5010204;28;20112;-69
2023/10/24 07:19:50;;;;;;;1999.90;999.90;;;;;;;;;;4992842;28;20165;-69
2023/10/24 07:22:16;;;;;;;1999.90;999.90;;;;;;;;;;4993016;28;20029;-74
2023/10/24 07:24:42;;;;;;;1999.90;999.90;;;;;;;;;;5011360;28;20109;-71
2023/10/24 07:27:10;;;;;;;1999.90;999.90;;;;;;;;;;5011030;28;20046;-69
2023/10/24 07:29:36;;;;;;;1999.90;999.90;;;;;;;;;;5011118;28;20460;-66
2023/10/24 07:32:02;;;;;;;1999.90;999.90;;;;;;;;;;5011312;28;20063;-75
2023/10/24 07:34:32;;;;;;;1999.90;999.90;;;;;;;;;;5011071;28;20029;-74
2023/10/24 07:36:59;;;;;;;1999.90;999.90;;;;;;;;;;5011019;28;20045;-73
2023/10/24 07:39:25;;;;;;;1999.90;999.90;;;;;;;;;;5010341;28;20492;-72
2023/10/24 07:41:51;;;;;;;1999.90;999.90;;;;;;;;;;5010686;28;20036;-63
2023/10/24 07:44:17;;;;;;;1999.90;999.90;;;;;;;;;;5010897;28;20030;-71
2023/10/24 07:46:43;;;;;;;1999.90;999.90;;;;;;;;;;5010264;28;20507;-70
2023/10/24 07:49:10;;;;;;;1999.90;999.90;;;;;;;;;;4992676;28;20124;-69
2023/10/24 07:51:36;;;;;;;1999.90;999.90;;;;;;;;;;5010853;28;20030;-72
2023/10/24 07:54:02;;;;;;;1999.90;999.90;;;;;;;;;;5010888;28;20030;-69
2023/10/24 07:56:28;;;;;;;1999.90;999.90;;;;;;;;;;5011296;28;20081;-72
2023/10/24 07:58:54;;;;;;;1999.90;999.90;;;;;;;;;;5011075;28;20033;-73
2023/10/24 08:01:20;;;;;;;1999.90;999.90;;;;;;;;;;5010627;28;20373;-73
2023/10/24 08:03:46;;;;;;;1999.90;999.90;;;;;;;;;;5010328;28;20030;-70
2023/10/24 08:06:12;;;;;;;1999.90;999.90;;;;;;;;;;5010714;28;20294;-69
2023/10/24 08:08:43;;;;;;;1999.90;999.90;;;;;;;;;;5010391;28;20132;-69
2023/10/24 08:11:09;;;;;;;1999.90;999.90;;;;;;;;;;5010564;28;20030;-69
2023/10/24 08:13:35;;;;;;;1999.90;999.90;;;;;;;;;;5010338;28;20038;-73
2023/10/24 08:16:01;;;;;;;1999.90;999.90;;;;;;;;;;5010198;28;20423;-74
2023/10/24 08:18:27;;;;;;;1999.90;999.90;;;;;;;;;;5010594;28;20445;-76
2023/10/24 08:20:54;;;;;;;1999.90;999.90;;;;;;;;;;5010742;28;20455;-64
2023/10/24 08:23:20;;;;;;;1999.90;999.90;;;;;;;;;;5010563;28;20026;-68
2023/10/24 08:25:46;;;;;;;1999.90;999.90;;;;;;;;;;5010782;28;20038;-70
2023/10/24 08:28:12;;;;;;;1999.90;999.90;;;;;;;;;;5014033;28;20045;-65
2023/10/24 08:30:38;;;;;;;1999.90;999.90;;;;;;;;;;5013749;28;20100;-67
2023/10/24 08:33:04;;;;;;;1999.90;999.90;;;;;;;;;;5013561;28;20624;-72
2023/10/24 08:35:30;;;;;;;1999.90;999.90;;;;;;;;;;5013867;28;20026;-70
2023/10/24 08:37:56;;;;;;;1999.90;999.90;;;;;;;;;;5013852;28;20053;-71
2023/10/24 08:40:22;;;;;;;1999.90;999.90;;;;;;;;;;5005510;28;20034;-73
2023/10/24 08:42:48;;;;;;;1999.90;999.90;;;;;;;;;;5012679;28;20091;-72
2023/10/24 08:45:17;;;;;;;1999.90;999.90;;;;;;;;;;4996540;28;20100;-73
2023/10/24 08:47:45;;;;;;;1999.90;999.90;;;;;;;;;;4974561;28;20035;-71
2023/10/24 08:50:11;;;;;;;1999.90;999.90;;;;;;;;;;4957684;28;20066;-72
2023/10/24 08:52:38;;;;;;;1999.90;999.90;;;;;;;;;;4957176;28;20528;-77
2023/10/24 08:55:04;;;;;;;1999.90;999.90;;;;;;;;;;4974436;28;20386;-69
2023/10/24 08:57:34;;;;;;;1999.90;999.90;;;;;;;;;;4974901;28;20031;-76
2023/10/24 09:00:01;;;;;;;1999.90;999.90;;;;;;;;;;4974554;28;20050;-75
2023/10/24 09:02:27;;;;;;;1999.90;999.90;;;;;;;;;;4956778;28;20049;-76
2023/10/24 09:04:54;;;;;;;1999.90;999.90;;;;;;;;;;4974285;28;20081;-75
2023/10/24 09:07:20;;;;;;;1999.90;999.90;;;;;;;;;;4974732;28;20483;-74
2023/10/24 09:09:46;;;;;;;1999.90;999.90;;;;;;;;;;4976442;28;20575;-65
2023/10/24 09:12:15;;;;;;;1999.90;999.90;;;;;;;;;;4993635;28;20022;-74
2023/10/24 09:14:45;;;;;;;1999.90;999.90;;;;;;;;;;4996321;28;20032;-81
2023/10/24 09:17:13;;;;;;;1999.90;999.90;;;;;;;;;;4996803;28;20053;-80
2023/10/24 09:19:42;;;;;;;1999.90;999.90;;;;;;;;;;4993895;28;20339;-74
2023/10/24 09:22:16;;;;;;;1999.90;999.90;;;;;;;;;;4975718;28;20054;-76
2023/10/24 09:24:45;;;;;;;1999.90;999.90;;;;;;;;;;4993026;28;20414;-76
2023/10/24 09:27:13;;;;;;;1999.90;999.90;;;;;;;;;;4993693;28;20102;-77
2023/10/24 09:29:40;;;;;;;1999.90;999.90;;;;;;;;;;4993357;28;20085;-76
2023/10/24 09:32:06;;;;;;;1999.90;999.90;;;;;;;;;;4993330;28;20018;-77
2023/10/24 09:34:33;;;;;;;1999.90;999.90;;;;;;;;;;4993314;28;20026;-73
2023/10/24 09:37:07;;;;;;;1999.90;999.90;;;;;;;;;;4992791;28;20501;-75
2023/10/24 09:39:33;;;;;;;1999.90;999.90;;;;;;;;;;4974778;28;20046;-67
2023/10/24 09:41:59;;;;;;;1999.90;999.90;;;;;;;;;;4993750;28;20057;-74
2023/10/24 09:44:26;;;;;;;1999.90;999.90;;;;;;;;;;4993280;28;20033;-77
2023/10/24 09:46:53;;;;;;;1999.90;999.90;;;;;;;;;;4993634;28;20030;-78
2023/10/24 09:49:20;;;;;;;1999.90;999.90;;;;;;;;;;4994336;28;20110;-77
2023/10/24 09:51:46;;;;;;;1999.90;999.90;;;;;;;;;;4975477;28;20034;-73
2023/10/24 09:54:13;;;;;;;1999.90;999.90;;;;;;;;;;4993109;28;20029;-73
2023/10/24 09:56:39;;;;;;;1999.90;999.90;;;;;;;;;;4974012;28;20042;-80
2023/10/24 09:59:05;;;;;;;1999.90;999.90;;;;;;;;;;4992840;28;20035;-78
2023/10/24 10:01:32;;;;;;;1999.90;999.90;;;;;;;;;;4992434;28;20077;-81
2023/10/24 10:04:00;;;;;;;1999.90;999.90;;;;;;;;;;4992885;28;20022;-80
2023/10/24 10:06:29;;;;;;;1999.90;999.90;;;;;;;;;;4992787;28;20080;-67
2023/10/24 10:08:58;;;;;;;1999.90;999.90;;;;;;;;;;4992268;28;20086;-78
2023/10/24 10:11:26;;;;;;;1999.90;999.90;;;;;;;;;;4974639;28;20118;-75
2023/10/24 10:13:54;;;;;;;1999.90;999.90;;;;;;;;;;4992324;28;20041;-69
2023/10/24 10:16:23;;;;;;;1999.90;999.90;;;;;;;;;;4991542;28;20132;-75
2023/10/24 10:19:01;;;;;;;1999.90;999.90;;;;;;;;;;4974790;28;20022;-76
2023/10/24 10:21:40;;;;;;;1999.90;999.90;;;;;;;;;;4992035;28;20022;-75
2023/10/24 10:24:15;;;;;;;1999.90;999.90;;;;;;;;;;4973813;28;20535;-77
2023/10/24 10:26:47;;;;;;;1999.90;999.90;;;;;;;;;;4991894;28;20026;-66
2023/10/24 10:29:13;;;;;;;;;;;;;;;;;;4992821;28;20046;-72
2023/10/24 10:31:46;;;;;;;1999.90;999.90;;;;;;;;;;4991772;28;19905;-74
2023/10/24 10:34:12;;;;;;;1999.90;999.90;;;;;;;;;;4991916;28;20026;-82
2023/10/24 10:36:39;;;;;;;1999.90;999.90;;;;;;;;;;4992618;28;20085;-67
2023/10/24 10:39:14;;;;;;;1999.90;999.90;;;;;;;;;;4992304;28;20049;-76
2023/10/24 10:41:42;;;;;;;1999.90;999.90;;;;;;;;;;4992910;28;20026;-72
2023/10/24 10:44:27;;;;;;;1999.90;999.90;;;;;;;;;;4992962;28;20033;-67
2023/10/24 10:46:59;;;;;;;1999.90;999.90;;;;;;;;;;4991833;28;20040;-64
2023/10/24 10:49:26;;;;;;;1999.90;999.90;;;;;;;;;;4991174;28;20026;-63
2023/10/24 10:51:54;;;;;;;1999.90;999.90;;;;;;;;;;4991797;28;20030;-69
2023/10/24 10:54:26;;;;;;;1999.90;999.90;;;;;;;;;;5000972;28;20105;-66
2023/10/24 10:56:55;;;;;;;1999.90;999.90;;;;;;;;;;4998727;28;20073;-68
2023/10/24 10:59:34;;;;;;;1999.90;999.90;;;;;;;;;;5000303;28;20021;-71
2023/10/24 11:02:03;;;;;;;1999.90;999.90;;;;;;;;;;5000829;28;20026;-69
2023/10/24 11:04:30;;;;;;;1999.90;999.90;;;;;;;;;;5010985;28;20037;-70
2023/10/24 11:06:57;;;;;;;1999.90;999.90;;;;;;;;;;5011521;28;20030;-66
2023/10/24 11:09:34;;;;;;;1999.90;999.90;;;;;;;;;;5010764;28;20046;-67
2023/10/24 11:12:19;;;;;;;1999.90;999.90;;;;;;;;;;5010901;28;20053;-69
2023/10/24 11:14:45;;;;;;;1999.90;999.90;;;;;;;;;;5010992;28;20850;-69
2023/10/24 11:17:12;;;;;;;1999.90;999.90;;;;;;;;;;5011180;28;20044;-63
2023/10/24 11:19:38;;;;;;;1999.90;999.90;;;;;;;;;;5011428;28;20057;-63
2023/10/24 11:22:04;;;;;;;1999.90;999.90;;;;;;;;;;5011220;28;20057;-71
2023/10/24 11:24:31;;;;;;;1999.90;999.90;;;;;;;;;;5007409;28;20049;-74
2023/10/24 11:26:58;;;;;;;1999.90;999.90;;;;;;;;;;4978702;28;20030;-63
2023/10/24 11:29:25;;;;;;;1999.90;999.90;;;;;;;;;;4982270;28;20023;-74
2023/10/24 11:31:51;;;;;;;1999.90;999.90;;;;;;;;;;4979618;28;20035;-65
2023/10/24 11:34:18;;;;;;;1999.90;999.90;;;;;;;;;;4983755;28;20035;-70
2023/10/24 11:36:44;;;;;;;1999.90;999.90;;;;;;;;;;4979471;28;20368;-68
2023/10/24 11:39:14;;;;;;;1999.90;999.90;;;;;;;;;;4993450;28;20030;-68
2023/10/24 11:41:40;;;;;;;1999.90;999.90;;;;;;;;;;4986638;28;20553;-70
2023/10/24 11:44:07;;;;;;;1999.90;999.90;;;;;;;;;;4997465;28;20023;-66
2023/10/24 11:46:33;;;;;;;1999.90;999.90;;;;;;;;;;4981931;28;20035;-70
2023/10/24 11:48:59;;;;;;;1999.90;999.90;;;;;;;;;;4979820;28;20053;-74
2023/10/24 11:51:27;;;;;;;1999.90;999.90;;;;;;;;;;4982176;28;20021;-78
2023/10/24 11:54:06;;;;;;;1999.90;999.90;;;;;;;;;;4983337;28;20073;-70
2023/10/24 11:56:32;;;;;;;1999.90;999.90;;;;;;;;;;4982713;28;20600;-64
2023/10/24 11:59:01;;;;;;;1999.90;999.90;;;;;;;;;;4979200;28;20065;-69
2023/10/24 12:01:31;;;;;;;1999.90;999.90;;;;;;;;;;4983770;28;20014;-64
2023/10/24 12:03:57;;;;;;;1999.90;999.90;;;;;;;;;;4980666;28;20031;-74
2023/10/24 12:06:26;;;;;;;1999.90;999.90;;;;;;;;;;4975333;28;20493;-75
2023/10/24 12:08:52;;;;;;;1999.90;999.90;;;;;;;;;;4974866;28;20502;-76
2023/10/24 12:11:18;;;;;;;1999.90;999.90;;;;;;;;;;4975196;28;20034;-76
2023/10/24 12:13:45;;;;;;;1999.90;999.90;;;;;;;;;;4975421;28;20035;-74
2023/10/24 12:16:11;;;;;;;1999.90;999.90;;;;;;;;;;4974671;28;20027;-74
2023/10/24 12:18:38;;;;;;;1999.90;999.90;;;;;;;;;;4975335;28;20037;-64
2023/10/24 12:21:05;;;;;;;1999.90;999.90;;;;;;;;;;4975391;28;20023;-72
2023/10/24 12:23:31;;;;;;;1999.90;999.90;;;;;;;;;;4975381;28;20479;-71
2023/10/24 12:25:57;;;;;;;1999.90;999.90;;;;;;;;;;4973655;28;20034;-73
2023/10/24 12:28:23;;;;;;;1999.90;999.90;;;;;;;;;;4975225;28;20034;-71
2023/10/24 12:30:49;;;;;;;1999.90;999.90;;;;;;;;;;4974837;28;20042;-74
2023/10/24 12:33:15;;;;;;;1999.90;999.90;;;;;;;;;;4975244;28;20478;-73
2023/10/24 12:35:41;;;;;;;1999.90;999.90;;;;;;;;;;4974951;28;20023;-72
2023/10/24 12:38:07;;;;;;;1999.90;999.90;;;;;;;;;;4974590;28;20110;-65
2023/10/24 12:40:33;;;;;;;1999.90;999.90;;;;;;;;;;4974723;28;20031;-70
2023/10/24 12:42:59;;;;;;;1999.90;999.90;;;;;;;;;;4974801;28;20077;-73
2023/10/24 12:45:25;;;;;;;1999.90;999.90;;;;;;;;;;4974786;28;20029;-71
2023/10/24 12:47:53;;;;;;;1999.90;999.90;;;;;;;;;;4974472;28;20482;-67
2023/10/24 12:50:19;;;;;;;1999.90;999.90;;;;;;;;;;4974820;28;20019;-63
2023/10/24 12:52:45;;;;;;;1999.90;999.90;;;;;;;;;;4974871;28;20031;-65
2023/10/24 12:55:11;;;;;;;1999.90;999.90;;;;;;;;;;4974377;28;20023;-72
2023/10/24 12:57:37;;;;;;;1999.90;999.90;;;;;;;;;;4974604;28;20102;-70
2023/10/24 13:00:04;;;;;;;1999.90;999.90;;;;;;;;;;4974562;28;20066;-67
2023/10/24 13:02:30;;;;;;;1999.90;999.90;;;;;;;;;;4974736;28;20063;-69
2023/10/24 13:04:56;;;;;;;1999.90;999.90;;;;;;;;;;4974757;28;20015;-65
2023/10/24 13:07:22;;;;;;;1999.90;999.90;;;;;;;;;;4974100;28;20023;-65
2023/10/24 13:09:48;;;;;;;1999.90;999.90;;;;;;;;;;4984418;28;20078;-63
2023/10/24 13:12:14;;;;;;;1999.90;999.90;;;;;;;;;;4982076;28;20041;-63
2023/10/24 13:14:40;;;;;;;1999.90;999.90;;;;;;;;;;4988689;28;20544;-67
2023/10/24 13:17:06;;;;;;;1999.90;999.90;;;;;;;;;;4988685;28;20117;-66
2023/10/24 13:19:32;;;;;;;1999.90;999.90;;;;;;;;;;4985433;28;20418;-64
2023/10/24 13:21:59;;;;;;;1999.90;999.90;;;;;;;;;;4976526;28;20091;-63
2023/10/24 13:24:25;;;;;;;1999.90;999.90;;;;;;;;;;4976453;28;20059;-63
2023/10/24 13:26:51;;;;;;;1999.90;999.90;;;;;;;;;;4978833;28;20022;-63
2023/10/24 13:29:20;;;;;;;1999.90;999.90;;;;;;;;;;4984480;28;20089;-63
2023/10/24 13:31:47;;;;;;;1999.90;999.90;;;;;;;;;;4973786;28;20368;-63
2023/10/24 13:34:13;;;;;;;1999.90;999.90;;;;;;;;;;4973675;28;20024;-63
2023/10/24 13:36:39;;;;;;;1999.90;999.90;;;;;;;;;;4973809;28;20058;-70
2023/10/24 13:39:06;;;;;;;1999.90;999.90;;;;;;;;;;4973863;28;20442;-66
2023/10/24 13:41:32;;;;;;;1999.90;999.90;;;;;;;;;;4975655;28;20025;-62
2023/10/24 13:43:59;;;;;;;1999.90;999.90;;;;;;;;;;4979985;28;20023;-62
2023/10/24 13:46:28;;;;;;;1999.90;999.90;;;;;;;;;;4983220;28;20045;-65
2023/10/24 13:48:57;;;;;;;1999.90;999.90;;;;;;;;;;4986710;28;20058;-65
2023/10/24 13:51:23;;;;;;;1999.90;999.90;;;;;;;;;;4982552;28;20019;-67
2023/10/24 13:53:49;;;;;;;1999.90;999.90;;;;;;;;;;5008885;28;20040;-63
2023/10/24 13:56:15;;;;;;;1999.90;999.90;;;;;;;;;;5010273;28;20065;-63
2023/10/24 13:58:41;;;;;;;1999.90;999.90;;;;;;;;;;4997858;28;20430;-71
2023/10/24 14:01:08;;;;;;;1999.90;999.90;;;;;;;;;;4993171;28;20064;-67
2023/10/24 14:03:35;;;;;;;1999.90;999.90;;;;;;;;;;4992905;28;20026;-63
2023/10/24 14:06:01;;;;;;;1999.90;999.90;;;;;;;;;;4993034;28;20029;-68
2023/10/24 14:08:27;;;;;;;1999.90;999.90;;;;;;;;;;4992209;28;20161;-66
2023/10/24 14:10:53;;;;;;;1999.90;999.90;;;;;;;;;;4992670;28;20030;-64
2023/10/24 14:13:19;;;;;;;1999.90;999.90;;;;;;;;;;4999520;28;20045;-73
2023/10/24 14:15:47;;;;;;;1999.90;999.90;;;;;;;;;;5001996;28;20492;-68
2023/10/24 14:18:13;;;;;;;1999.90;999.90;;;;;;;;;;4981740;28;20116;-66
2023/10/24 14:20:40;;;;;;;1999.90;999.90;;;;;;;;;;4993997;28;20053;-72
2023/10/24 14:23:06;;;;;;;1999.90;999.90;;;;;;;;;;4993159;28;20027;-72
2023/10/24 14:25:33;;;;;;;1999.90;999.90;;;;;;;;;;4992414;28;20019;-73
2023/10/24 14:27:59;;;;;;;1999.90;999.90;;;;;;;;;;4992544;28;20120;-71
2023/10/24 14:30:25;;;;;;;1999.90;999.90;;;;;;;;;;4994498;28;20026;-72
2023/10/24 14:32:52;;;;;;;1999.90;999.90;;;;;;;;;;4974727;28;20035;-68
2023/10/24 14:35:18;;;;;;;1999.90;999.90;;;;;;;;;;4993040;28;20026;-72
2023/10/24 14:37:44;;;;;;;1999.90;999.90;;;;;;;;;;4992192;28;20129;-69
2023/10/24 14:40:10;;;;;;;1999.90;999.90;;;;;;;;;;4992205;28;20026;-73
2023/10/24 14:42:36;;;;;;;1999.90;999.90;;;;;;;;;;4992141;28;20031;-73
2023/10/24 14:45:03;;;;;;;1999.90;999.90;;;;;;;;;;4992446;28;20030;-73
2023/10/24 14:47:30;;;;;;;1999.90;999.90;;;;;;;;;;4992153;28;20019;-69
2023/10/24 14:49:57;;;;;;;1999.90;999.90;;;;;;;;;;4992219;28;20453;-73
2023/10/24 14:52:23;;;;;;;1999.90;999.90;;;;;;;;;;4992953;28;20019;-71
2023/10/24 14:54:49;;;;;;;1999.90;999.90;;;;;;;;;;4992015;28;20028;-73
2023/10/24 14:57:15;;;;;;;1999.90;999.90;;;;;;;;;;4999031;28;20014;-65
2023/10/24 14:59:41;;;;;;;1999.90;999.90;;;;;;;;;;5001826;28;20050;-73
2023/10/24 15:02:07;;;;;;;1999.90;999.90;;;;;;;;;;5005433;28;20030;-70
2023/10/24 15:04:34;;;;;;;1999.90;999.90;;;;;;;;;;5004683;28;20026;-71
2023/10/24 15:07:02;;;;;;;1999.90;999.90;;;;;;;;;;5014531;28;20022;-65
2023/10/24 15:09:28;;;;;;;1999.90;999.90;;;;;;;;;;5012283;28;20121;-73
2023/10/24 15:11:55;;;;;;;1999.90;999.90;;;;;;;;;;5001604;28;20021;-64
2023/10/24 15:14:22;;;;;;;1999.90;999.90;;;;;;;;;;5001123;28;20050;-63
2023/10/24 15:16:48;;;;;;;1999.90;999.90;;;;;;;;;;4997544;28;20784;-64
2023/10/24 15:19:14;;;;;;;1999.90;999.90;;;;;;;;;;5000880;28;20034;-73
2023/10/24 15:21:40;;;;;;;1999.90;999.90;;;;;;;;;;5001889;28;20364;-62
2023/10/24 15:24:06;;;;;;;1999.90;999.90;;;;;;;;;;4998924;28;20027;-63
2023/10/24 15:26:35;;;;;;;1999.90;999.90;;;;;;;;;;5003036;28;20228;-63
2023/10/24 15:29:01;;;;;;;1999.90;999.90;;;;;;;;;;4997171;28;20030;-63
2023/10/24 15:31:27;;;;;;;1999.90;999.90;;;;;;;;;;4995854;28;20024;-65
2023/10/24 15:33:53;;;;;;;1999.90;999.90;;;;;;;;;;5000182;28;20442;-63
2023/10/24 15:36:19;;;;;;;1999.90;999.90;;;;;;;;;;4999753;28;20018;-73
2023/10/24 15:38:45;;;;;;;1999.90;999.90;;;;;;;;;;5001717;28;20108;-63
2023/10/24 15:41:11;;;;;;;1999.90;999.90;;;;;;;;;;5000020;28;20385;-73
2023/10/24 15:43:39;;;;;;;1999.90;999.90;;;;;;;;;;5000053;28;20512;-64
2023/10/24 15:46:09;;;;;;;1999.90;999.90;;;;;;;;;;5001669;28;20025;-72
2023/10/24 15:48:35;;;;;;;1999.90;999.90;;;;;;;;;;4999540;28;20022;-73
2023/10/24 15:51:02;;;;;;;1999.90;999.90;;;;;;;;;;4994308;28;20074;-65
2023/10/24 15:53:28;;;;;;;1999.90;999.90;;;;;;;;;;4998038;28;20049;-66
2023/10/24 15:55:58;;;;;;;1999.90;999.90;;;;;;;;;;4999274;28;20025;-73
2023/10/24 15:58:28;;;;;;;1999.90;999.90;;;;;;;;;;5001314;28;20056;-64
2023/10/24 16:00:54;;;;;;;1999.90;999.90;;;;;;;;;;5000243;28;20049;-64
2023/10/24 16:03:20;;;;;;;1999.90;999.90;;;;;;;;;;4999649;28;20111;-64
2023/10/24 16:05:46;;;;;;;1999.90;999.90;;;;;;;;;;4990791;28;20034;-74
2023/10/24 16:08:12;;;;;;;1999.90;999.90;;;;;;;;;;4986842;28;20047;-67
2023/10/24 16:10:38;;;;;;;1999.90;999.90;;;;;;;;;;4992975;28;20038;-73
2023/10/24 16:13:05;;;;;;;1999.90;999.90;;;;;;;;;;5002849;28;20109;-74
2023/10/24 16:15:31;;;;;;;1999.90;999.90;;;;;;;;;;5010346;28;20080;-73
2023/10/24 16:17:57;;;;;;;1999.90;999.90;;;;;;;;;;4988571;28;20041;-72
2023/10/24 16:20:25;;;;;;;1999.90;999.90;;;;;;;;;;4989219;28;20034;-72
2023/10/24 16:22:51;;;;;;;1999.90;999.90;;;;;;;;;;4991328;28;20105;-66
2023/10/24 16:25:17;;;;;;;1999.90;999.90;;;;;;;;;;4993464;28;20041;-71
2023/10/24 16:27:43;;;;;;;1999.90;999.90;;;;;;;;;;4989648;28;20094;-64
2023/10/24 16:30:10;;;;;;;1999.90;999.90;;;;;;;;;;4990556;28;20050;-66
2023/10/24 16:32:37;;;;;;;1999.90;999.90;;;;;;;;;;4990345;28;20157;-63
2023/10/24 16:35:04;;;;;;;1999.90;999.90;;;;;;;;;;4990353;28;20023;-63
2023/10/24 16:37:30;;;;;;;1999.90;999.90;;;;;;;;;;4993348;28;20382;-63
2023/10/24 16:39:56;;;;;;;1999.90;999.90;;;;;;;;;;4993441;28;20549;-76
2023/10/24 16:42:22;;;;;;;1999.90;999.90;;;;;;;;;;4990178;28;20454;-64
2023/10/24 16:44:48;;;;;;;1999.90;999.90;;;;;;;;;;4996474;28;20026;-64
2023/10/24 16:47:14;;;;;;;1999.90;999.90;;;;;;;;;;4987342;28;20025;-72
2023/10/24 16:49:40;;;;;;;1999.90;999.90;;;;;;;;;;5009164;28;20030;-67
2023/10/24 16:52:06;;;;;;;1999.90;999.90;;;;;;;;;;5003639;28;20073;-63
2023/10/24 16:54:32;;;;;;;1999.90;999.90;;;;;;;;;;5000834;28;20022;-63
2023/10/24 16:56:58;;;;;;;1999.90;999.90;;;;;;;;;;5003335;28;20038;-67
2023/10/24 16:59:24;;;;;;;1999.90;999.90;;;;;;;;;;4980973;28;20034;-65
2023/10/24 17:01:50;;;;;;;1999.90;999.90;;;;;;;;;;4974622;28;20045;-75
2023/10/24 17:04:17;;;;;;;1999.90;999.90;;;;;;;;;;4992485;28;20406;-75
2023/10/24 17:06:43;;;;;;;1999.90;999.90;;;;;;;;;;4994057;28;20102;-64
2023/10/24 17:09:12;;;;;;;1999.90;999.90;;;;;;;;;;4993188;28;20240;-63
2023/10/24 17:11:38;;;;;;;1999.90;999.90;;;;;;;;;;4994188;28;20026;-66
2023/10/24 17:14:05;;;;;;;1999.90;999.90;;;;;;;;;;4993774;28;20057;-74
2023/10/24 17:16:31;;;;;;;1999.90;999.90;;;;;;;;;;4993643;28;20022;-74
2023/10/24 17:18:58;;;;;;;1999.90;999.90;;;;;;;;;;5004196;28;20043;-74
2023/10/24 17:21:25;;;;;;;1999.90;999.90;;;;;;;;;;5002292;28;20041;-63
2023/10/24 17:23:51;;;;;;;1999.90;999.90;;;;;;;;;;5000615;28;20026;-74
2023/10/24 17:26:17;;;;;;;1999.90;999.90;;;;;;;;;;4993539;28;20030;-72
2023/10/24 17:28:44;;;;;;;1999.90;999.90;;;;;;;;;;4993257;28;20490;-67
2023/10/24 17:31:10;;;;;;;1999.90;999.90;;;;;;;;;;4993603;28;20497;-69
2023/10/24 17:33:36;;;;;;;1999.90;999.90;;;;;;;;;;4993237;28;20426;-71
2023/10/24 17:36:03;;;;;;;1999.90;999.90;;;;;;;;;;4993228;28;20030;-63
2023/10/24 17:38:30;;;;;;;1999.90;999.90;;;;;;;;;;4993112;28;20497;-70
2023/10/24 17:40:57;;;;;;;1999.90;999.90;;;;;;;;;;4993324;28;20035;-73
2023/10/24 17:43:26;;;;;;;1999.90;999.90;;;;;;;;;;4975240;28;20439;-73
2023/10/24 17:45:53;;;;;;;1999.90;999.90;;;;;;;;;;4993541;28;20030;-71
2023/10/24 17:48:19;;;;;;;1999.90;999.90;;;;;;;;;;4992996;28;20386;-67
2023/10/24 17:50:45;;;;;;;1999.90;999.90;;;;;;;;;;4993391;28;20045;-67
2023/10/24 17:53:11;;;;;;;1999.90;999.90;;;;;;;;;;4993114;28;20026;-67
2023/10/24 17:55:38;;;;;;;1999.90;999.90;;;;;;;;;;4993028;28;20022;-72
2023/10/24 17:58:04;;;;;;;1999.90;999.90;;;;;;;;;;4997738;28;20069;-73
2023/10/24 18:00:32;;;;;;;1999.90;999.90;;;;;;;;;;5000825;28;20508;-70
2023/10/24 18:02:58;;;;;;;1999.90;999.90;;;;;;;;;;5009117;28;20029;-66
2023/10/24 18:05:24;;;;;;;1999.90;999.90;;;;;;;;;;4998689;28;20042;-67
2023/10/24 18:07:55;;;;;;;1999.90;999.90;;;;;;;;;;4994193;28;20050;-69
2023/10/24 18:10:21;;;;;;;1999.90;999.90;;;;;;;;;;4996691;28;20097;-63
2023/10/24 18:12:47;;;;;;;1999.90;999.90;;;;;;;;;;4996418;28;20050;-71
2023/10/24 18:15:13;;;;;;;1999.90;999.90;;;;;;;;;;5002439;28;20109;-64
2023/10/24 18:17:42;;;;;;;1999.90;999.90;;;;;;;;;;4995108;28;20026;-65
2023/10/24 18:20:11;;;;;;;1999.90;999.90;;;;;;;;;;4991878;28;20382;-66
2023/10/24 18:22:38;;;;;;;1999.90;999.90;;;;;;;;;;4995126;28;20065;-70
2023/10/24 18:25:05;;;;;;;1999.90;999.90;;;;;;;;;;5006506;28;20030;-64
2023/10/24 18:27:31;;;;;;;1999.90;999.90;;;;;;;;;;4994346;28;20126;-73
2023/10/24 18:29:57;;;;;;;1999.90;999.90;;;;;;;;;;5001043;28;20029;-79
2023/10/24 18:32:24;;;;;;;1999.90;999.90;;;;;;;;;;5003647;28;20026;-65
2023/10/24 18:34:50;;;;;;;1999.90;999.90;;;;;;;;;;4988220;28;20475;-64
2023/10/24 18:37:16;;;;;;;1999.90;999.90;;;;;;;;;;4992173;28;20056;-67
2023/10/24 18:39:42;;;;;;;1999.90;999.90;;;;;;;;;;4991948;28;20034;-63
2023/10/24 18:42:09;;;;;;;1999.90;999.90;;;;;;;;;;4985811;28;20580;-63
2023/10/24 18:44:35;;;;;;;1999.90;999.90;;;;;;;;;;4991877;28;20034;-72
2023/10/24 18:47:01;;;;;;;1999.90;999.90;;;;;;;;;;4991943;28;20058;-65
2023/10/24 18:49:27;;;;;;;1999.90;999.90;;;;;;;;;;4991775;28;20490;-70